Aviation Digital Data Service (ADDS)

Output produced by METARs form (0328 UTC 18 June 2019)
found at http://www.aviationweather.gov/metar/data/
 
METAR text: ESIA 180320Z AUTO 00000KT 9999 NCD 11/10 Q1018
Conditions at: ESIA (KARLSBORG (SWE-A, SE) observed 0320 UTC 18 June 2019
Temperature: 11.0°C (52°F)
Dewpoint: 10.0°C (50°F) [RH = 94%]
Pressure (altimeter): 30.06 inches Hg (1018.0 mb)
Winds: calm
Visibility: 6 or more miles (10+ km)
Ceiling: at least 12,000 feet AGL
Clouds: sky clear below 12,000 feet AGL
Weather: no significant weather observed at this time

METAR text: ESIA 180250Z AUTO 00000KT 9999 NCD 11/10 Q1018
Conditions at: ESIA (KARLSBORG (SWE-A, SE) observed 0250 UTC 18 June 2019
Temperature: 11.0°C (52°F)
Dewpoint: 10.0°C (50°F) [RH = 94%]
Pressure (altimeter): 30.06 inches Hg (1018.0 mb)
Winds: calm
Visibility: 6 or more miles (10+ km)
Ceiling: at least 12,000 feet AGL
Clouds: sky clear below 12,000 feet AGL
Weather: no significant weather observed at this time

METAR text: ESIA 180220Z AUTO 00000KT 9000 BR NCD 10/09 Q1018
Conditions at: ESIA (KARLSBORG (SWE-A, SE) observed 0220 UTC 18 June 2019
Temperature: 10.0°C (50°F)
Dewpoint: 9.0°C (48°F) [RH = 93%]
Pressure (altimeter): 30.06 inches Hg (1018.0 mb)
Winds: calm
Visibility: 6 miles ( 9 km)
Ceiling: at least 12,000 feet AGL
Clouds: sky clear below 12,000 feet AGL
Weather: BR  (mist)

METAR text: ESIA 180150Z AUTO 00000KT 9999 NCD 11/10 Q1018
Conditions at: ESIA (KARLSBORG (SWE-A, SE) observed 0150 UTC 18 June 2019
Temperature: 11.0°C (52°F)
Dewpoint: 10.0°C (50°F) [RH = 94%]
Pressure (altimeter): 30.06 inches Hg (1018.0 mb)
Winds: calm
Visibility: 6 or more miles (10+ km)
Ceiling: at least 12,000 feet AGL
Clouds: sky clear below 12,000 feet AGL
Weather: no significant weather observed at this time

METAR text: ESIA 180120Z AUTO 00000KT 9999 NCD 10/09 Q1019
Conditions at: ESIA (KARLSBORG (SWE-A, SE) observed 0120 UTC 18 June 2019
Temperature: 10.0°C (50°F)
Dewpoint: 9.0°C (48°F) [RH = 93%]
Pressure (altimeter): 30.09 inches Hg (1019.0 mb)
Winds: calm
Visibility: 6 or more miles (10+ km)
Ceiling: at least 12,000 feet AGL
Clouds: sky clear below 12,000 feet AGL
Weather: no significant weather observed at this time

METAR text: ESIA 180050Z AUTO 00000KT 9999 NCD 11/10 Q1018
Conditions at: ESIA (KARLSBORG (SWE-A, SE) observed 0050 UTC 18 June 2019
Temperature: 11.0°C (52°F)
Dewpoint: 10.0°C (50°F) [RH = 94%]
Pressure (altimeter): 30.06 inches Hg (1018.0 mb)
Winds: calm
Visibility: 6 or more miles (10+ km)
Ceiling: at least 12,000 feet AGL
Clouds: sky clear below 12,000 feet AGL
Weather: no significant weather observed at this time

METAR text: ESIA 180020Z AUTO 00000KT 9999 NCD 11/09 Q1018
Conditions at: ESIA (KARLSBORG (SWE-A, SE) observed 0020 UTC 18 June 2019
Temperature: 11.0°C (52°F)
Dewpoint: 9.0°C (48°F) [RH = 87%]
Pressure (altimeter): 30.06 inches Hg (1018.0 mb)
Winds: calm
Visibility: 6 or more miles (10+ km)
Ceiling: at least 12,000 feet AGL
Clouds: sky clear below 12,000 feet AGL
Weather: no significant weather observed at this time

METAR text: ESIA 172350Z AUTO 00000KT 9999 NCD 12/10 Q1018
Conditions at: ESIA (KARLSBORG (SWE-A, SE) observed 2350 UTC 17 June 2019
Temperature: 12.0°C (54°F)
Dewpoint: 10.0°C (50°F) [RH = 88%]
Pressure (altimeter): 30.06 inches Hg (1018.0 mb)
Winds: calm
Visibility: 6 or more miles (10+ km)
Ceiling: at least 12,000 feet AGL
Clouds: sky clear below 12,000 feet AGL
Weather: no significant weather observed at this time

METAR text: ESIA 172320Z AUTO 00000KT 9999 NCD 12/10 Q1018
Conditions at: ESIA (KARLSBORG (SWE-A, SE) observed 2320 UTC 17 June 2019
Temperature: 12.0°C (54°F)
Dewpoint: 10.0°C (50°F) [RH = 88%]
Pressure (altimeter): 30.06 inches Hg (1018.0 mb)
Winds: calm
Visibility: 6 or more miles (10+ km)
Ceiling: at least 12,000 feet AGL
Clouds: sky clear below 12,000 feet AGL
Weather: no significant weather observed at this time

METAR text: ESIA 172250Z AUTO 00000KT 9999 NCD 14/11 Q1018
Conditions at: ESIA (KARLSBORG (SWE-A, SE) observed 2250 UTC 17 June 2019
Temperature: 14.0°C (57°F)
Dewpoint: 11.0°C (52°F) [RH = 82%]
Pressure (altimeter): 30.06 inches Hg (1018.0 mb)
Winds: calm
Visibility: 6 or more miles (10+ km)
Ceiling: at least 12,000 feet AGL
Clouds: sky clear below 12,000 feet AGL
Weather: no significant weather observed at this time

METAR text: ESIA 172220Z AUTO 00000KT 9999 NCD 13/10 Q1018
Conditions at: ESIA (KARLSBORG (SWE-A, SE) observed 2220 UTC 17 June 2019
Temperature: 13.0°C (55°F)
Dewpoint: 10.0°C (50°F) [RH = 82%]
Pressure (altimeter): 30.06 inches Hg (1018.0 mb)
Winds: calm
Visibility: 6 or more miles (10+ km)
Ceiling: at least 12,000 feet AGL
Clouds: sky clear below 12,000 feet AGL
Weather: no significant weather observed at this time

METAR text: ESIA 172150Z AUTO 26001KT 9999 NCD 15/11 Q1018
Conditions at: ESIA (KARLSBORG (SWE-A, SE) observed 2150 UTC 17 June 2019
Temperature: 15.0°C (59°F)
Dewpoint: 11.0°C (52°F) [RH = 77%]
Pressure (altimeter): 30.06 inches Hg (1018.0 mb)
Winds: from the W (260 degrees) at 1 MPH (1 knots; 0.5 m/s)
Visibility: 6 or more miles (10+ km)
Ceiling: at least 12,000 feet AGL
Clouds: sky clear below 12,000 feet AGL
Weather: no significant weather observed at this time

METAR text: ESIA 172120Z AUTO 26007KT 9999 SCT041/// 16/12 Q1018
Conditions at: ESIA (KARLSBORG (SWE-A, SE) observed 2120 UTC 17 June 2019
Temperature: 16.0°C (61°F)
Dewpoint: 12.0°C (54°F) [RH = 77%]
Pressure (altimeter): 30.06 inches Hg (1018.0 mb)
Winds: from the W (260 degrees) at 8 MPH (7 knots; 3.6 m/s)
Visibility: 6 or more miles (10+ km)
Ceiling: at least 12,000 feet AGL
Clouds: scattered clouds at 4100 feet AGL
Weather: no significant weather observed at this time

METAR text: ESIA 172050Z AUTO 27007KT 9999 OVC034/// 17/12 Q1018
Conditions at: ESIA (KARLSBORG (SWE-A, SE) observed 2050 UTC 17 June 2019
Temperature: 17.0°C (63°F)
Dewpoint: 12.0°C (54°F) [RH = 72%]
Pressure (altimeter): 30.06 inches Hg (1018.0 mb)
Winds: from the W (270 degrees) at 8 MPH (7 knots; 3.6 m/s)
Visibility: 6 or more miles (10+ km)
Ceiling: 3400 feet AGL
Clouds: overcast cloud deck at 3400 feet AGL
Weather: no significant weather observed at this time

METAR text: ESIA 172020Z AUTO 25004KT 9999 BKN034/// 15/11 Q1018
Conditions at: ESIA (KARLSBORG (SWE-A, SE) observed 2020 UTC 17 June 2019
Temperature: 15.0°C (59°F)
Dewpoint: 11.0°C (52°F) [RH = 77%]
Pressure (altimeter): 30.06 inches Hg (1018.0 mb)
Winds: from the WSW (250 degrees) at 5 MPH (4 knots; 2.1 m/s)
Visibility: 6 or more miles (10+ km)
Ceiling: 3400 feet AGL
Clouds: broken clouds at 3400 feet AGL
Weather: no significant weather observed at this time

METAR text: ESIA 171950Z AUTO 25004KT 9999 SCT037/// 16/11 Q1018
Conditions at: ESIA (KARLSBORG (SWE-A, SE) observed 1950 UTC 17 June 2019
Temperature: 16.0°C (61°F)
Dewpoint: 11.0°C (52°F) [RH = 72%]
Pressure (altimeter): 30.06 inches Hg (1018.0 mb)
Winds: from the WSW (250 degrees) at 5 MPH (4 knots; 2.1 m/s)
Visibility: 6 or more miles (10+ km)
Ceiling: at least 12,000 feet AGL
Clouds: scattered clouds at 3700 feet AGL
Weather: no significant weather observed at this time

METAR text: ESIA 171920Z AUTO 25005KT 9999 FEW040/// 17/11 Q1018
Conditions at: ESIA (KARLSBORG (SWE-A, SE) observed 1920 UTC 17 June 2019
Temperature: 17.0°C (63°F)
Dewpoint: 11.0°C (52°F) [RH = 68%]
Pressure (altimeter): 30.06 inches Hg (1018.0 mb)
Winds: from the WSW (250 degrees) at 6 MPH (5 knots; 2.6 m/s)
Visibility: 6 or more miles (10+ km)
Ceiling: at least 12,000 feet AGL
Clouds: few clouds at 4000 feet AGL
Weather: no significant weather observed at this time

METAR text: ESIA 171850Z AUTO 26007KT 9999 NCD 18/11 Q1017
Conditions at: ESIA (KARLSBORG (SWE-A, SE) observed 1850 UTC 17 June 2019
Temperature: 18.0°C (64°F)
Dewpoint: 11.0°C (52°F) [RH = 64%]
Pressure (altimeter): 30.03 inches Hg (1017.0 mb)
Winds: from the W (260 degrees) at 8 MPH (7 knots; 3.6 m/s)
Visibility: 6 or more miles (10+ km)
Ceiling: at least 12,000 feet AGL
Clouds: sky clear below 12,000 feet AGL
Weather: no significant weather observed at this time

METAR text: ESIA 171820Z AUTO 26006KT 9999 FEW060/// 19/11 Q1018
Conditions at: ESIA (KARLSBORG (SWE-A, SE) observed 1820 UTC 17 June 2019
Temperature: 19.0°C (66°F)
Dewpoint: 11.0°C (52°F) [RH = 60%]
Pressure (altimeter): 30.06 inches Hg (1018.0 mb)
Winds: from the W (260 degrees) at 7 MPH (6 knots; 3.1 m/s)
Visibility: 6 or more miles (10+ km)
Ceiling: at least 12,000 feet AGL
Clouds: few clouds at 6000 feet AGL
Weather: no significant weather observed at this time

METAR text: ESIA 171750Z AUTO 27008KT 9999 BKN056/// 19/10 Q1017
Conditions at: ESIA (KARLSBORG (SWE-A, SE) observed 1750 UTC 17 June 2019
Temperature: 19.0°C (66°F)
Dewpoint: 10.0°C (50°F) [RH = 56%]
Pressure (altimeter): 30.03 inches Hg (1017.0 mb)
Winds: from the W (270 degrees) at 9 MPH (8 knots; 4.1 m/s)
Visibility: 6 or more miles (10+ km)
Ceiling: 5600 feet AGL
Clouds: broken clouds at 5600 feet AGL
Weather: no significant weather observed at this time

METAR text: ESIA 171720Z AUTO 27009KT 9999 SCT054/// 20/10 Q1017
Conditions at: ESIA (KARLSBORG (SWE-A, SE) observed 1720 UTC 17 June 2019
Temperature: 20.0°C (68°F)
Dewpoint: 10.0°C (50°F) [RH = 53%]
Pressure (altimeter): 30.03 inches Hg (1017.0 mb)
Winds: from the W (270 degrees) at 10 MPH (9 knots; 4.6 m/s)
Visibility: 6 or more miles (10+ km)
Ceiling: at least 12,000 feet AGL
Clouds: scattered clouds at 5400 feet AGL
Weather: no significant weather observed at this time

METAR text: ESIA 171650Z AUTO 27012KT 240V310 9999 NCD 20/10 Q1017
Conditions at: ESIA (KARLSBORG (SWE-A, SE) observed 1650 UTC 17 June 2019
Temperature: 20.0°C (68°F)
Dewpoint: 10.0°C (50°F) [RH = 53%]
Pressure (altimeter): 30.03 inches Hg (1017.0 mb)
Winds: from the W (270 degrees) at 14 MPH (12 knots; 6.2 m/s)
Visibility: 6 or more miles (10+ km)
Ceiling: at least 12,000 feet AGL
Clouds: sky clear below 12,000 feet AGL
Weather: no significant weather observed at this time

METAR text: ESIA 171620Z AUTO 27012KT 9999 FEW049/// 20/09 Q1018
Conditions at: ESIA (KARLSBORG (SWE-A, SE) observed 1620 UTC 17 June 2019
Temperature: 20.0°C (68°F)
Dewpoint: 9.0°C (48°F) [RH = 49%]
Pressure (altimeter): 30.06 inches Hg (1018.0 mb)
Winds: from the W (270 degrees) at 14 MPH (12 knots; 6.2 m/s)
Visibility: 6 or more miles (10+ km)
Ceiling: at least 12,000 feet AGL
Clouds: few clouds at 4900 feet AGL
Weather: no significant weather observed at this time

METAR text: ESIA 171550Z AUTO 28014KT 9999 FEW052/// 21/09 Q1018
Conditions at: ESIA (KARLSBORG (SWE-A, SE) observed 1550 UTC 17 June 2019
Temperature: 21.0°C (70°F)
Dewpoint: 9.0°C (48°F) [RH = 46%]
Pressure (altimeter): 30.06 inches Hg (1018.0 mb)
Winds: from the W (280 degrees) at 16 MPH (14 knots; 7.2 m/s)
Visibility: 6 or more miles (10+ km)
Ceiling: at least 12,000 feet AGL
Clouds: few clouds at 5200 feet AGL
Weather: no significant weather observed at this time

METAR text: ESIA 171520Z AUTO 26013KT 240V320 9999 FEW052/// 21/09 Q1017
Conditions at: ESIA (KARLSBORG (SWE-A, SE) observed 1520 UTC 17 June 2019
Temperature: 21.0°C (70°F)
Dewpoint: 9.0°C (48°F) [RH = 46%]
Pressure (altimeter): 30.03 inches Hg (1017.0 mb)
Winds: from the W (260 degrees) at 15 MPH (13 knots; 6.7 m/s)
Visibility: 6 or more miles (10+ km)
Ceiling: at least 12,000 feet AGL
Clouds: few clouds at 5200 feet AGL
Weather: no significant weather observed at this time

METAR text: ESIA 171450Z 27013KT 240V310 CAVOK 21/09 Q1017
Conditions at: ESIA (KARLSBORG (SWE-A, SE) observed 1450 UTC 17 June 2019
Temperature: 21.0°C (70°F)
Dewpoint: 9.0°C (48°F) [RH = 46%]
Pressure (altimeter): 30.03 inches Hg (1017.0 mb)
Winds: from the W (270 degrees) at 15 MPH (13 knots; 6.7 m/s)
Visibility: 6 or more miles (10+ km)
Ceiling: ceiling and visibility are OK
Clouds: unknown
Weather: no significant weather observed at this time

METAR text: ESIA 171420Z 26012KT CAVOK 21/10 Q1017
Conditions at: ESIA (KARLSBORG (SWE-A, SE) observed 1420 UTC 17 June 2019
Temperature: 21.0°C (70°F)
Dewpoint: 10.0°C (50°F) [RH = 49%]
Pressure (altimeter): 30.03 inches Hg (1017.0 mb)
Winds: from the W (260 degrees) at 14 MPH (12 knots; 6.2 m/s)
Visibility: 6 or more miles (10+ km)
Ceiling: ceiling and visibility are OK
Clouds: unknown
Weather: no significant weather observed at this time

METAR text: ESIA 171350Z 28011KT 240V300 CAVOK 21/09 Q1017
Conditions at: ESIA (KARLSBORG (SWE-A, SE) observed 1350 UTC 17 June 2019
Temperature: 21.0°C (70°F)
Dewpoint: 9.0°C (48°F) [RH = 46%]
Pressure (altimeter): 30.03 inches Hg (1017.0 mb)
Winds: from the W (280 degrees) at 13 MPH (11 knots; 5.7 m/s)
Visibility: 6 or more miles (10+ km)
Ceiling: ceiling and visibility are OK
Clouds: unknown
Weather: no significant weather observed at this time

METAR text: ESIA 171320Z 26011KT CAVOK 21/08 Q1017
Conditions at: ESIA (KARLSBORG (SWE-A, SE) observed 1320 UTC 17 June 2019
Temperature: 21.0°C (70°F)
Dewpoint: 8.0°C (46°F) [RH = 43%]
Pressure (altimeter): 30.03 inches Hg (1017.0 mb)
Winds: from the W (260 degrees) at 13 MPH (11 knots; 5.7 m/s)
Visibility: 6 or more miles (10+ km)
Ceiling: ceiling and visibility are OK
Clouds: unknown
Weather: no significant weather observed at this time

METAR text: ESIA 171250Z 25012KT CAVOK 21/08 Q1018
Conditions at: ESIA (KARLSBORG (SWE-A, SE) observed 1250 UTC 17 June 2019
Temperature: 21.0°C (70°F)
Dewpoint: 8.0°C (46°F) [RH = 43%]
Pressure (altimeter): 30.06 inches Hg (1018.0 mb)
Winds: from the WSW (250 degrees) at 14 MPH (12 knots; 6.2 m/s)
Visibility: 6 or more miles (10+ km)
Ceiling: ceiling and visibility are OK
Clouds: unknown
Weather: no significant weather observed at this time

METAR text: ESIA 171220Z 27010KT 240V300 CAVOK 21/08 Q1018
Conditions at: ESIA (KARLSBORG (SWE-A, SE) observed 1220 UTC 17 June 2019
Temperature: 21.0°C (70°F)
Dewpoint: 8.0°C (46°F) [RH = 43%]
Pressure (altimeter): 30.06 inches Hg (1018.0 mb)
Winds: from the W (270 degrees) at 12 MPH (10 knots; 5.1 m/s)
Visibility: 6 or more miles (10+ km)
Ceiling: ceiling and visibility are OK
Clouds: unknown
Weather: no significant weather observed at this time

METAR text: ESIA 171150Z 25010KT CAVOK 21/09 Q1018
Conditions at: ESIA (KARLSBORG (SWE-A, SE) observed 1150 UTC 17 June 2019
Temperature: 21.0°C (70°F)
Dewpoint: 9.0°C (48°F) [RH = 46%]
Pressure (altimeter): 30.06 inches Hg (1018.0 mb)
Winds: from the WSW (250 degrees) at 12 MPH (10 knots; 5.1 m/s)
Visibility: 6 or more miles (10+ km)
Ceiling: ceiling and visibility are OK
Clouds: unknown
Weather: no significant weather observed at this time

METAR text: ESIA 171120Z 26007KT 230V290 CAVOK 20/08 Q1018
Conditions at: ESIA (KARLSBORG (SWE-A, SE) observed 1120 UTC 17 June 2019
Temperature: 20.0°C (68°F)
Dewpoint: 8.0°C (46°F) [RH = 46%]
Pressure (altimeter): 30.06 inches Hg (1018.0 mb)
Winds: from the W (260 degrees) at 8 MPH (7 knots; 3.6 m/s)
Visibility: 6 or more miles (10+ km)
Ceiling: ceiling and visibility are OK
Clouds: unknown
Weather: no significant weather observed at this time

METAR text: ESIA 171050Z 26009KT 240V300 CAVOK 20/08 Q1018
Conditions at: ESIA (KARLSBORG (SWE-A, SE) observed 1050 UTC 17 June 2019
Temperature: 20.0°C (68°F)
Dewpoint: 8.0°C (46°F) [RH = 46%]
Pressure (altimeter): 30.06 inches Hg (1018.0 mb)
Winds: from the W (260 degrees) at 10 MPH (9 knots; 4.6 m/s)
Visibility: 6 or more miles (10+ km)
Ceiling: ceiling and visibility are OK
Clouds: unknown
Weather: no significant weather observed at this time

METAR text: ESIA 171020Z 25012KT 230V290 CAVOK 20/08 Q1018
Conditions at: ESIA (KARLSBORG (SWE-A, SE) observed 1020 UTC 17 June 2019
Temperature: 20.0°C (68°F)
Dewpoint: 8.0°C (46°F) [RH = 46%]
Pressure (altimeter): 30.06 inches Hg (1018.0 mb)
Winds: from the WSW (250 degrees) at 14 MPH (12 knots; 6.2 m/s)
Visibility: 6 or more miles (10+ km)
Ceiling: ceiling and visibility are OK
Clouds: unknown
Weather: no significant weather observed at this time

METAR text: ESIA 170950Z 24012KT CAVOK 20/08 Q1018
Conditions at: ESIA (KARLSBORG (SWE-A, SE) observed 0950 UTC 17 June 2019
Temperature: 20.0°C (68°F)
Dewpoint: 8.0°C (46°F) [RH = 46%]
Pressure (altimeter): 30.06 inches Hg (1018.0 mb)
Winds: from the WSW (240 degrees) at 14 MPH (12 knots; 6.2 m/s)
Visibility: 6 or more miles (10+ km)
Ceiling: ceiling and visibility are OK
Clouds: unknown
Weather: no significant weather observed at this time

METAR text: ESIA 170920Z 26011KT 230V290 CAVOK 19/07 Q1018
Conditions at: ESIA (KARLSBORG (SWE-A, SE) observed 0920 UTC 17 June 2019
Temperature: 19.0°C (66°F)
Dewpoint: 7.0°C (45°F) [RH = 46%]
Pressure (altimeter): 30.06 inches Hg (1018.0 mb)
Winds: from the W (260 degrees) at 13 MPH (11 knots; 5.7 m/s)
Visibility: 6 or more miles (10+ km)
Ceiling: ceiling and visibility are OK
Clouds: unknown
Weather: no significant weather observed at this time

METAR text: ESIA 170850Z 24012KT CAVOK 19/07 Q1018
Conditions at: ESIA (KARLSBORG (SWE-A, SE) observed 0850 UTC 17 June 2019
Temperature: 19.0°C (66°F)
Dewpoint: 7.0°C (45°F) [RH = 46%]
Pressure (altimeter): 30.06 inches Hg (1018.0 mb)
Winds: from the WSW (240 degrees) at 14 MPH (12 knots; 6.2 m/s)
Visibility: 6 or more miles (10+ km)
Ceiling: ceiling and visibility are OK
Clouds: unknown
Weather: no significant weather observed at this time

METAR text: ESIA 170820Z 25011KT CAVOK 18/07 Q1018
Conditions at: ESIA (KARLSBORG (SWE-A, SE) observed 0820 UTC 17 June 2019
Temperature: 18.0°C (64°F)
Dewpoint: 7.0°C (45°F) [RH = 49%]
Pressure (altimeter): 30.06 inches Hg (1018.0 mb)
Winds: from the WSW (250 degrees) at 13 MPH (11 knots; 5.7 m/s)
Visibility: 6 or more miles (10+ km)
Ceiling: ceiling and visibility are OK
Clouds: unknown
Weather: no significant weather observed at this time

METAR text: ESIA 170750Z 27009KT 230V290 CAVOK 17/07 Q1018
Conditions at: ESIA (KARLSBORG (SWE-A, SE) observed 0750 UTC 17 June 2019
Temperature: 17.0°C (63°F)
Dewpoint: 7.0°C (45°F) [RH = 52%]
Pressure (altimeter): 30.06 inches Hg (1018.0 mb)
Winds: from the W (270 degrees) at 10 MPH (9 knots; 4.6 m/s)
Visibility: 6 or more miles (10+ km)
Ceiling: ceiling and visibility are OK
Clouds: unknown
Weather: no significant weather observed at this time

METAR text: ESIA 170720Z 25010KT 220V290 CAVOK 17/08 Q1018
Conditions at: ESIA (KARLSBORG (SWE-A, SE) observed 0720 UTC 17 June 2019
Temperature: 17.0°C (63°F)
Dewpoint: 8.0°C (46°F) [RH = 55%]
Pressure (altimeter): 30.06 inches Hg (1018.0 mb)
Winds: from the WSW (250 degrees) at 12 MPH (10 knots; 5.1 m/s)
Visibility: 6 or more miles (10+ km)
Ceiling: ceiling and visibility are OK
Clouds: unknown
Weather: no significant weather observed at this time

METAR text: ESIA 170650Z 26011KT CAVOK 16/08 Q1018
Conditions at: ESIA (KARLSBORG (SWE-A, SE) observed 0650 UTC 17 June 2019
Temperature: 16.0°C (61°F)
Dewpoint: 8.0°C (46°F) [RH = 59%]
Pressure (altimeter): 30.06 inches Hg (1018.0 mb)
Winds: from the W (260 degrees) at 13 MPH (11 knots; 5.7 m/s)
Visibility: 6 or more miles (10+ km)
Ceiling: ceiling and visibility are OK
Clouds: unknown
Weather: no significant weather observed at this time

METAR text: ESIA 170620Z 25011KT CAVOK 16/09 Q1018
Conditions at: ESIA (KARLSBORG (SWE-A, SE) observed 0620 UTC 17 June 2019
Temperature: 16.0°C (61°F)
Dewpoint: 9.0°C (48°F) [RH = 63%]
Pressure (altimeter): 30.06 inches Hg (1018.0 mb)
Winds: from the WSW (250 degrees) at 13 MPH (11 knots; 5.7 m/s)
Visibility: 6 or more miles (10+ km)
Ceiling: ceiling and visibility are OK
Clouds: unknown
Weather: no significant weather observed at this time

METAR text: ESIA 170550Z AUTO 25010KT 9999 NCD 15/09 Q1018
Conditions at: ESIA (KARLSBORG (SWE-A, SE) observed 0550 UTC 17 June 2019
Temperature: 15.0°C (59°F)
Dewpoint: 9.0°C (48°F) [RH = 67%]
Pressure (altimeter): 30.06 inches Hg (1018.0 mb)
Winds: from the WSW (250 degrees) at 12 MPH (10 knots; 5.1 m/s)
Visibility: 6 or more miles (10+ km)
Ceiling: at least 12,000 feet AGL
Clouds: sky clear below 12,000 feet AGL
Weather: no significant weather observed at this time

METAR text: ESIA 170520Z AUTO 25009KT 9999 NCD 14/10 Q1018
Conditions at: ESIA (KARLSBORG (SWE-A, SE) observed 0520 UTC 17 June 2019
Temperature: 14.0°C (57°F)
Dewpoint: 10.0°C (50°F) [RH = 77%]
Pressure (altimeter): 30.06 inches Hg (1018.0 mb)
Winds: from the WSW (250 degrees) at 10 MPH (9 knots; 4.6 m/s)
Visibility: 6 or more miles (10+ km)
Ceiling: at least 12,000 feet AGL
Clouds: sky clear below 12,000 feet AGL
Weather: no significant weather observed at this time

METAR text: ESIA 170450Z AUTO 25009KT 9999 NCD 13/09 Q1018
Conditions at: ESIA (KARLSBORG (SWE-A, SE) observed 0450 UTC 17 June 2019
Temperature: 13.0°C (55°F)
Dewpoint: 9.0°C (48°F) [RH = 77%]
Pressure (altimeter): 30.06 inches Hg (1018.0 mb)
Winds: from the WSW (250 degrees) at 10 MPH (9 knots; 4.6 m/s)
Visibility: 6 or more miles (10+ km)
Ceiling: at least 12,000 feet AGL
Clouds: sky clear below 12,000 feet AGL
Weather: no significant weather observed at this time

METAR text: ESIA 170420Z AUTO 25008KT 9999 NCD 13/10 Q1017
Conditions at: ESIA (KARLSBORG (SWE-A, SE) observed 0420 UTC 17 June 2019
Temperature: 13.0°C (55°F)
Dewpoint: 10.0°C (50°F) [RH = 82%]
Pressure (altimeter): 30.03 inches Hg (1017.0 mb)
Winds: from the WSW (250 degrees) at 9 MPH (8 knots; 4.1 m/s)
Visibility: 6 or more miles (10+ km)
Ceiling: at least 12,000 feet AGL
Clouds: sky clear below 12,000 feet AGL
Weather: no significant weather observed at this time

METAR text: ESIA 170350Z AUTO 26009KT 9999 NCD 12/10 Q1017
Conditions at: ESIA (KARLSBORG (SWE-A, SE) observed 0350 UTC 17 June 2019
Temperature: 12.0°C (54°F)
Dewpoint: 10.0°C (50°F) [RH = 88%]
Pressure (altimeter): 30.03 inches Hg (1017.0 mb)
Winds: from the W (260 degrees) at 10 MPH (9 knots; 4.6 m/s)
Visibility: 6 or more miles (10+ km)
Ceiling: at least 12,000 feet AGL
Clouds: sky clear below 12,000 feet AGL
Weather: no significant weather observed at this time

METAR text: ESIA 170320Z AUTO 25006KT 9999 NCD 11/09 Q1017
Conditions at: ESIA (KARLSBORG (SWE-A, SE) observed 0320 UTC 17 June 2019
Temperature: 11.0°C (52°F)
Dewpoint: 9.0°C (48°F) [RH = 87%]
Pressure (altimeter): 30.03 inches Hg (1017.0 mb)
Winds: from the WSW (250 degrees) at 7 MPH (6 knots; 3.1 m/s)
Visibility: 6 or more miles (10+ km)
Ceiling: at least 12,000 feet AGL
Clouds: sky clear below 12,000 feet AGL
Weather: no significant weather observed at this time

METAR text: ESIA 170250Z AUTO 25005KT 9999 NCD 09/08 Q1018
Conditions at: ESIA (KARLSBORG (SWE-A, SE) observed 0250 UTC 17 June 2019
Temperature: 9.0°C (48°F)
Dewpoint: 8.0°C (46°F) [RH = 93%]
Pressure (altimeter): 30.06 inches Hg (1018.0 mb)
Winds: from the WSW (250 degrees) at 6 MPH (5 knots; 2.6 m/s)
Visibility: 6 or more miles (10+ km)
Ceiling: at least 12,000 feet AGL
Clouds: sky clear below 12,000 feet AGL
Weather: no significant weather observed at this time

METAR text: ESIA 170220Z AUTO 23004KT 9999 NCD 10/08 Q1018
Conditions at: ESIA (KARLSBORG (SWE-A, SE) observed 0220 UTC 17 June 2019
Temperature: 10.0°C (50°F)
Dewpoint: 8.0°C (46°F) [RH = 87%]
Pressure (altimeter): 30.06 inches Hg (1018.0 mb)
Winds: from the SW (230 degrees) at 5 MPH (4 knots; 2.1 m/s)
Visibility: 6 or more miles (10+ km)
Ceiling: at least 12,000 feet AGL
Clouds: sky clear below 12,000 feet AGL
Weather: no significant weather observed at this time

METAR text: ESIA 170150Z AUTO 21005KT 9999 NCD 12/10 Q1018
Conditions at: ESIA (KARLSBORG (SWE-A, SE) observed 0150 UTC 17 June 2019
Temperature: 12.0°C (54°F)
Dewpoint: 10.0°C (50°F) [RH = 88%]
Pressure (altimeter): 30.06 inches Hg (1018.0 mb)
Winds: from the SSW (210 degrees) at 6 MPH (5 knots; 2.6 m/s)
Visibility: 6 or more miles (10+ km)
Ceiling: at least 12,000 feet AGL
Clouds: sky clear below 12,000 feet AGL
Weather: no significant weather observed at this time

METAR text: ESIA 170120Z AUTO 23006KT 9999 NCD 11/09 Q1017
Conditions at: ESIA (KARLSBORG (SWE-A, SE) observed 0120 UTC 17 June 2019
Temperature: 11.0°C (52°F)
Dewpoint: 9.0°C (48°F) [RH = 87%]
Pressure (altimeter): 30.03 inches Hg (1017.0 mb)
Winds: from the SW (230 degrees) at 7 MPH (6 knots; 3.1 m/s)
Visibility: 6 or more miles (10+ km)
Ceiling: at least 12,000 feet AGL
Clouds: sky clear below 12,000 feet AGL
Weather: no significant weather observed at this time

METAR text: ESIA 170050Z AUTO 24006KT 9999 NCD 12/10 Q1017
Conditions at: ESIA (KARLSBORG (SWE-A, SE) observed 0050 UTC 17 June 2019
Temperature: 12.0°C (54°F)
Dewpoint: 10.0°C (50°F) [RH = 88%]
Pressure (altimeter): 30.03 inches Hg (1017.0 mb)
Winds: from the WSW (240 degrees) at 7 MPH (6 knots; 3.1 m/s)
Visibility: 6 or more miles (10+ km)
Ceiling: at least 12,000 feet AGL
Clouds: sky clear below 12,000 feet AGL
Weather: no significant weather observed at this time

METAR text: ESIA 170020Z AUTO 24006KT 9999 NCD 13/10 Q1017
Conditions at: ESIA (KARLSBORG (SWE-A, SE) observed 0020 UTC 17 June 2019
Temperature: 13.0°C (55°F)
Dewpoint: 10.0°C (50°F) [RH = 82%]
Pressure (altimeter): 30.03 inches Hg (1017.0 mb)
Winds: from the WSW (240 degrees) at 7 MPH (6 knots; 3.1 m/s)
Visibility: 6 or more miles (10+ km)
Ceiling: at least 12,000 feet AGL
Clouds: sky clear below 12,000 feet AGL
Weather: no significant weather observed at this time

METAR text: ESIA 162350Z AUTO 26007KT 9999 NCD 14/11 Q1017
Conditions at: ESIA (KARLSBORG (SWE-A, SE) observed 2350 UTC 16 June 2019
Temperature: 14.0°C (57°F)
Dewpoint: 11.0°C (52°F) [RH = 82%]
Pressure (altimeter): 30.03 inches Hg (1017.0 mb)
Winds: from the W (260 degrees) at 8 MPH (7 knots; 3.6 m/s)
Visibility: 6 or more miles (10+ km)
Ceiling: at least 12,000 feet AGL
Clouds: sky clear below 12,000 feet AGL
Weather: no significant weather observed at this time

METAR text: ESIA 162320Z AUTO 24005KT 9999 FEW170/// 14/10 Q1017
Conditions at: ESIA (KARLSBORG (SWE-A, SE) observed 2320 UTC 16 June 2019
Temperature: 14.0°C (57°F)
Dewpoint: 10.0°C (50°F) [RH = 77%]
Pressure (altimeter): 30.03 inches Hg (1017.0 mb)
Winds: from the WSW (240 degrees) at 6 MPH (5 knots; 2.6 m/s)
Visibility: 6 or more miles (10+ km)
Ceiling: at least 12,000 feet AGL
Clouds: few clouds at 17000 feet AGL
Weather: no significant weather observed at this time

METAR text: ESIA 162250Z AUTO 26005KT 9999 BKN170/// 13/09 Q1017
Conditions at: ESIA (KARLSBORG (SWE-A, SE) observed 2250 UTC 16 June 2019
Temperature: 13.0°C (55°F)
Dewpoint: 9.0°C (48°F) [RH = 77%]
Pressure (altimeter): 30.03 inches Hg (1017.0 mb)
Winds: from the W (260 degrees) at 6 MPH (5 knots; 2.6 m/s)
Visibility: 6 or more miles (10+ km)
Ceiling: 17000 feet AGL
Clouds: broken clouds at 17000 feet AGL
Weather: no significant weather observed at this time

METAR text: ESIA 162220Z AUTO 24005KT 9999 BKN190/// 13/09 Q1017
Conditions at: ESIA (KARLSBORG (SWE-A, SE) observed 2220 UTC 16 June 2019
Temperature: 13.0°C (55°F)
Dewpoint: 9.0°C (48°F) [RH = 77%]
Pressure (altimeter): 30.03 inches Hg (1017.0 mb)
Winds: from the WSW (240 degrees) at 6 MPH (5 knots; 2.6 m/s)
Visibility: 6 or more miles (10+ km)
Ceiling: 19000 feet AGL
Clouds: broken clouds at 19000 feet AGL
Weather: no significant weather observed at this time

METAR text: ESIA 162150Z AUTO 22003KT 9999 SCT200/// 14/09 Q1017
Conditions at: ESIA (KARLSBORG (SWE-A, SE) observed 2150 UTC 16 June 2019
Temperature: 14.0°C (57°F)
Dewpoint: 9.0°C (48°F) [RH = 72%]
Pressure (altimeter): 30.03 inches Hg (1017.0 mb)
Winds: from the SW (220 degrees) at 3 MPH (3 knots; 1.5 m/s)
Visibility: 6 or more miles (10+ km)
Ceiling: at least 12,000 feet AGL
Clouds: scattered clouds at 20000 feet AGL
Weather: no significant weather observed at this time

METAR text: ESIA 162120Z AUTO 26004KT 9999 NCD 14/09 Q1017
Conditions at: ESIA (KARLSBORG (SWE-A, SE) observed 2120 UTC 16 June 2019
Temperature: 14.0°C (57°F)
Dewpoint: 9.0°C (48°F) [RH = 72%]
Pressure (altimeter): 30.03 inches Hg (1017.0 mb)
Winds: from the W (260 degrees) at 5 MPH (4 knots; 2.1 m/s)
Visibility: 6 or more miles (10+ km)
Ceiling: at least 12,000 feet AGL
Clouds: sky clear below 12,000 feet AGL
Weather: no significant weather observed at this time

METAR text: ESIA 162050Z AUTO 26005KT 9999 NCD 15/09 Q1017
Conditions at: ESIA (KARLSBORG (SWE-A, SE) observed 2050 UTC 16 June 2019
Temperature: 15.0°C (59°F)
Dewpoint: 9.0°C (48°F) [RH = 67%]
Pressure (altimeter): 30.03 inches Hg (1017.0 mb)
Winds: from the W (260 degrees) at 6 MPH (5 knots; 2.6 m/s)
Visibility: 6 or more miles (10+ km)
Ceiling: at least 12,000 feet AGL
Clouds: sky clear below 12,000 feet AGL
Weather: no significant weather observed at this time

METAR text: ESIA 162020Z AUTO 26005KT 9999 FEW062/// 16/09 Q1017
Conditions at: ESIA (KARLSBORG (SWE-A, SE) observed 2020 UTC 16 June 2019
Temperature: 16.0°C (61°F)
Dewpoint: 9.0°C (48°F) [RH = 63%]
Pressure (altimeter): 30.03 inches Hg (1017.0 mb)
Winds: from the W (260 degrees) at 6 MPH (5 knots; 2.6 m/s)
Visibility: 6 or more miles (10+ km)
Ceiling: at least 12,000 feet AGL
Clouds: few clouds at 6200 feet AGL
Weather: no significant weather observed at this time

METAR text: ESIA 161950Z AUTO 28007KT 9999 BKN064/// 17/09 Q1016
Conditions at: ESIA (KARLSBORG (SWE-A, SE) observed 1950 UTC 16 June 2019
Temperature: 17.0°C (63°F)
Dewpoint: 9.0°C (48°F) [RH = 59%]
Pressure (altimeter): 30.00 inches Hg (1016.0 mb)
Winds: from the W (280 degrees) at 8 MPH (7 knots; 3.6 m/s)
Visibility: 6 or more miles (10+ km)
Ceiling: 6400 feet AGL
Clouds: broken clouds at 6400 feet AGL
Weather: no significant weather observed at this time

METAR text: ESIA 161920Z AUTO 27008KT 9999 OVC056/// 17/11 Q1016
Conditions at: ESIA (KARLSBORG (SWE-A, SE) observed 1920 UTC 16 June 2019
Temperature: 17.0°C (63°F)
Dewpoint: 11.0°C (52°F) [RH = 68%]
Pressure (altimeter): 30.00 inches Hg (1016.0 mb)
Winds: from the W (270 degrees) at 9 MPH (8 knots; 4.1 m/s)
Visibility: 6 or more miles (10+ km)
Ceiling: 5600 feet AGL
Clouds: overcast cloud deck at 5600 feet AGL
Weather: no significant weather observed at this time

METAR text: ESIA 161850Z AUTO 27007KT 240V300 9999 FEW025/// BKN052/// 18/13 Q1016
Conditions at: ESIA (KARLSBORG (SWE-A, SE) observed 1850 UTC 16 June 2019
Temperature: 18.0°C (64°F)
Dewpoint: 13.0°C (55°F) [RH = 73%]
Pressure (altimeter): 30.00 inches Hg (1016.0 mb)
Winds: from the W (270 degrees) at 8 MPH (7 knots; 3.6 m/s)
Visibility: 6 or more miles (10+ km)
Ceiling: 5200 feet AGL
Clouds: few clouds at 2500 feet AGL
broken clouds at 5200 feet AGL
Weather: no significant weather observed at this time

METAR text: ESIA 161820Z AUTO 29007KT 250V310 9999 FEW021/// BKN070/// OVC090/// 18/14 Q1016
Conditions at: ESIA (KARLSBORG (SWE-A, SE) observed 1820 UTC 16 June 2019
Temperature: 18.0°C (64°F)
Dewpoint: 14.0°C (57°F) [RH = 77%]
Pressure (altimeter): 30.00 inches Hg (1016.0 mb)
Winds: from the WNW (290 degrees) at 8 MPH (7 knots; 3.6 m/s)
Visibility: 6 or more miles (10+ km)
Ceiling: 7000 feet AGL
Clouds: few clouds at 2100 feet AGL
broken clouds at 7000 feet AGL
overcast cloud deck at 9000 feet AGL
Weather: no significant weather observed at this time

METAR text: ESIA 161750Z AUTO 28008KT 9999 OVC016/// 17/14 Q1016
Conditions at: ESIA (KARLSBORG (SWE-A, SE) observed 1750 UTC 16 June 2019
Temperature: 17.0°C (63°F)
Dewpoint: 14.0°C (57°F) [RH = 82%]
Pressure (altimeter): 30.00 inches Hg (1016.0 mb)
Winds: from the W (280 degrees) at 9 MPH (8 knots; 4.1 m/s)
Visibility: 6 or more miles (10+ km)
Ceiling: 1600 feet AGL
Clouds: overcast cloud deck at 1600 feet AGL
Weather: no significant weather observed at this time

METAR text: ESIA 161720Z AUTO 27009KT 9999 SCT017/// BKN064/// 18/14 Q1016
Conditions at: ESIA (KARLSBORG (SWE-A, SE) observed 1720 UTC 16 June 2019
Temperature: 18.0°C (64°F)
Dewpoint: 14.0°C (57°F) [RH = 77%]
Pressure (altimeter): 30.00 inches Hg (1016.0 mb)
Winds: from the W (270 degrees) at 10 MPH (9 knots; 4.6 m/s)
Visibility: 6 or more miles (10+ km)
Ceiling: 6400 feet AGL
Clouds: scattered clouds at 1700 feet AGL
broken clouds at 6400 feet AGL
Weather: no significant weather observed at this time

METAR text: ESIA 161650Z AUTO 27010KT 9999 SCT017/// OVC060/// 18/14 Q1015
Conditions at: ESIA (KARLSBORG (SWE-A, SE) observed 1650 UTC 16 June 2019
Temperature: 18.0°C (64°F)
Dewpoint: 14.0°C (57°F) [RH = 77%]
Pressure (altimeter): 29.97 inches Hg (1015.0 mb)
Winds: from the W (270 degrees) at 12 MPH (10 knots; 5.1 m/s)
Visibility: 6 or more miles (10+ km)
Ceiling: 6000 feet AGL
Clouds: scattered clouds at 1700 feet AGL
overcast cloud deck at 6000 feet AGL
Weather: no significant weather observed at this time

METAR text: ESIA 161620Z AUTO 28010KT 9999 OVC058/// 19/14 Q1015
Conditions at: ESIA (KARLSBORG (SWE-A, SE) observed 1620 UTC 16 June 2019
Temperature: 19.0°C (66°F)
Dewpoint: 14.0°C (57°F) [RH = 73%]
Pressure (altimeter): 29.97 inches Hg (1015.0 mb)
Winds: from the W (280 degrees) at 12 MPH (10 knots; 5.1 m/s)
Visibility: 6 or more miles (10+ km)
Ceiling: 5800 feet AGL
Clouds: overcast cloud deck at 5800 feet AGL
Weather: no significant weather observed at this time

METAR text: ESIA 161550Z AUTO 27008KT 9999 SCT021/// OVC064/// 19/15 Q1015
Conditions at: ESIA (KARLSBORG (SWE-A, SE) observed 1550 UTC 16 June 2019
Temperature: 19.0°C (66°F)
Dewpoint: 15.0°C (59°F) [RH = 78%]
Pressure (altimeter): 29.97 inches Hg (1015.0 mb)
Winds: from the W (270 degrees) at 9 MPH (8 knots; 4.1 m/s)
Visibility: 6 or more miles (10+ km)
Ceiling: 6400 feet AGL
Clouds: scattered clouds at 2100 feet AGL
overcast cloud deck at 6400 feet AGL
Weather: no significant weather observed at this time